Time;durP1;ratioP1;P1;durP2;ratioP2;P2;SDS_P1;SDS_P2;PMS_P1;PMS_P2;Temp;Humidity;BMP_temperature;BMP_pressure;BME280_temperature;BME280_humidity;BME280_pressure;Samples;Min_cycle;Max_cycle;Signal;HPM_P1;HPM_P2
2022/03/23 00:01:55;;;;;;;43.08;22.98;;;;;;;;;;5115641;28;20027;-47
2022/03/23 00:04:21;;;;;;;32.42;16.88;;;;;;;;;;5116307;28;20020;-44
2022/03/23 00:06:47;;;;;;;38.53;17.88;;;;;;;;;;5114682;28;20035;-45
2022/03/23 00:09:14;;;;;;;29.00;13.15;;;;;;;;;;5115620;28;20031;-45
2022/03/23 00:11:41;;;;;;;36.63;17.83;;;;;;;;;;5115268;28;20023;-45
2022/03/23 00:14:09;;;;;;;37.05;19.05;;;;;;;;;;5116054;28;20030;-43
2022/03/23 00:16:36;;;;;;;34.85;18.15;;;;;;;;;;5115423;28;20023;-46
2022/03/23 00:19:02;;;;;;;28.10;13.52;;;;;;;;;;5108293;28;20114;-48
2022/03/23 00:21:30;;;;;;;21.10;10.98;;;;;;;;;;5116039;28;20027;-45
2022/03/23 00:23:56;;;;;;;23.30;12.30;;;;;;;;;;5115963;28;20012;-46
2022/03/23 00:26:23;;;;;;;31.92;17.45;;;;;;;;;;5116101;28;20023;-43
2022/03/23 00:28:49;;;;;;;27.02;14.00;;;;;;;;;;5116102;28;20372;-46
2022/03/23 00:31:15;;;;;;;24.98;11.60;;;;;;;;;;5115916;28;20099;-44
2022/03/23 00:33:41;;;;;;;29.63;15.43;;;;;;;;;;5115920;28;20499;-46
2022/03/23 00:36:09;;;;;;;28.98;13.05;;;;;;;;;;5115694;28;20022;-43
2022/03/23 00:38:35;;;;;;;23.73;12.32;;;;;;;;;;5115526;28;20103;-45
2022/03/23 00:41:03;;;;;;;31.75;15.02;;;;;;;;;;5115831;28;20035;-44
2022/03/23 00:43:29;;;;;;;27.20;13.50;;;;;;;;;;5115460;28;20111;-44
2022/03/23 00:45:56;;;;;;;33.40;14.18;;;;;;;;;;5115470;28;20020;-45
2022/03/23 00:48:22;;;;;;;23.35;11.52;;;;;;;;;;5115373;28;20406;-45
2022/03/23 00:50:48;;;;;;;26.63;13.02;;;;;;;;;;5115392;28;20110;-43
2022/03/23 00:53:15;;;;;;;23.13;11.80;;;;;;;;;;5115318;28;20020;-43
2022/03/23 00:55:41;;;;;;;37.20;16.58;;;;;;;;;;5115179;28;20103;-44
2022/03/23 00:58:07;;;;;;;26.58;12.98;;;;;;;;;;5114454;28;20031;-45
2022/03/23 01:00:34;;;;;;;26.67;13.60;;;;;;;;;;5115119;28;20028;-45
2022/03/23 01:03:00;;;;;;;27.05;13.52;;;;;;;;;;5115226;28;20023;-45
2022/03/23 01:05:26;;;;;;;24.98;12.75;;;;;;;;;;5114013;28;20023;-46
2022/03/23 01:07:53;;;;;;;26.63;12.73;;;;;;;;;;5111149;27;20027;-45
2022/03/23 01:10:20;;;;;;;29.10;14.80;;;;;;;;;;5111516;27;20019;-47
2022/03/23 01:12:46;;;;;;;29.00;14.80;;;;;;;;;;5117592;27;20021;-45
2022/03/23 01:15:14;;;;;;;56.35;29.25;;;;;;;;;;5120242;27;20034;-43
2022/03/23 01:17:41;;;;;;;49.55;25.27;;;;;;;;;;5121091;27;20084;-46
2022/03/23 01:20:08;;;;;;;47.28;22.23;;;;;;;;;;5117914;27;20039;-44
2022/03/23 01:22:35;;;;;;;47.25;24.52;;;;;;;;;;5115069;28;20045;-43
2022/03/23 01:25:03;;;;;;;45.75;20.25;;;;;;;;;;5114795;28;20395;-47
2022/03/23 01:27:29;;;;;;;32.55;16.20;;;;;;;;;;5114825;28;20490;-44
2022/03/23 01:29:55;;;;;;;31.80;16.38;;;;;;;;;;5115029;28;20031;-46
2022/03/23 01:32:21;;;;;;;34.60;15.65;;;;;;;;;;5114514;28;20027;-45
2022/03/23 01:34:48;;;;;;;30.70;15.38;;;;;;;;;;5114648;28;20028;-44
2022/03/23 01:37:14;;;;;;;32.65;15.18;;;;;;;;;;5096288;28;20031;-46
2022/03/23 01:39:40;;;;;;;34.00;15.20;;;;;;;;;;5114515;28;20036;-45
2022/03/23 01:42:07;;;;;;;29.00;15.98;;;;;;;;;;5114549;28;20099;-46
2022/03/23 01:44:33;;;;;;;52.88;22.33;;;;;;;;;;5114535;28;20505;-52
2022/03/23 01:47:07;;;;;;;52.60;25.80;;;;;;;;;;5114287;28;20020;-46
2022/03/23 01:49:37;;;;;;;45.58;21.63;;;;;;;;;;5114078;28;20044;-45
2022/03/23 01:52:05;;;;;;;38.28;16.20;;;;;;;;;;5114484;28;20544;-46
2022/03/23 01:54:31;;;;;;;35.40;15.85;;;;;;;;;;5114179;28;20077;-44
2022/03/23 01:56:58;;;;;;;30.92;16.42;;;;;;;;;;5114350;28;20103;-44
2022/03/23 01:59:24;;;;;;;33.65;16.60;;;;;;;;;;5114266;28;20395;-45
2022/03/23 02:01:51;;;;;;;44.22;19.95;;;;;;;;;;5114106;28;20383;-44
2022/03/23 02:04:17;;;;;;;32.25;15.93;;;;;;;;;;5114087;28;20520;-44
2022/03/23 02:06:43;;;;;;;30.63;15.65;;;;;;;;;;5114026;28;20119;-46
2022/03/23 02:09:09;;;;;;;37.35;20.08;;;;;;;;;;5113761;28;20024;-45
2022/03/23 02:11:37;;;;;;;30.08;14.77;;;;;;;;;;5114038;28;20467;-45
2022/03/23 02:14:03;;;;;;;27.48;13.40;;;;;;;;;;5114091;28;20020;-44
2022/03/23 02:16:30;;;;;;;27.98;14.13;;;;;;;;;;5113779;28;20032;-44
2022/03/23 02:18:56;;;;;;;34.45;14.23;;;;;;;;;;5113799;28;20028;-44
2022/03/23 02:21:22;;;;;;;28.67;14.80;;;;;;;;;;5101073;28;20054;-44
2022/03/23 02:23:48;;;;;;;24.35;14.30;;;;;;;;;;5113635;28;20031;-47
2022/03/23 02:26:14;;;;;;;30.20;14.90;;;;;;;;;;5113797;28;20028;-46
2022/03/23 02:28:41;;;;;;;39.80;18.25;;;;;;;;;;5112859;28;20180;-45
2022/03/23 02:31:07;;;;;;;28.83;15.40;;;;;;;;;;5113836;28;20027;-47
2022/03/23 02:33:34;;;;;;;32.47;14.20;;;;;;;;;;5113725;28;20015;-45
2022/03/23 02:36:00;;;;;;;44.28;16.00;;;;;;;;;;5114245;28;20023;-45
2022/03/23 02:38:27;;;;;;;26.38;12.80;;;;;;;;;;5113621;28;20112;-46
2022/03/23 02:40:53;;;;;;;30.17;14.52;;;;;;;;;;5113435;28;20031;-45
2022/03/23 02:43:19;;;;;;;34.88;17.17;;;;;;;;;;5113572;28;20020;-45
2022/03/23 02:45:46;;;;;;;30.95;15.07;;;;;;;;;;5113421;28;20047;-46
2022/03/23 02:48:12;;;;;;;38.97;18.60;;;;;;;;;;5113431;28;20048;-46
2022/03/23 02:50:38;;;;;;;30.90;15.07;;;;;;;;;;5113467;28;20039;-46
2022/03/23 03:01:53;;;;;;;28.03;13.93;;;;;;;;;;5113639;28;20084;-45
2022/03/23 03:04:20;;;;;;;30.90;14.95;;;;;;;;;;5113592;28;20106;-45
2022/03/23 03:06:46;;;;;;;34.53;17.15;;;;;;;;;;5113558;28;20110;-45
2022/03/23 03:09:13;;;;;;;32.17;14.52;;;;;;;;;;5113308;28;20020;-45
2022/03/23 03:11:44;;;;;;;31.48;14.70;;;;;;;;;;5113385;28;20530;-45
2022/03/23 03:14:13;;;;;;;35.95;16.00;;;;;;;;;;5113320;28;20057;-45
2022/03/23 03:16:40;;;;;;;29.02;13.30;;;;;;;;;;5113300;28;20027;-45
2022/03/23 03:19:10;;;;;;;38.58;13.30;;;;;;;;;;5113266;28;20028;-46
2022/03/23 03:21:37;;;;;;;29.30;13.63;;;;;;;;;;5116900;28;20034;-45
2022/03/23 03:24:03;;;;;;;40.97;17.70;;;;;;;;;;5116932;28;20016;-45
2022/03/23 03:26:32;;;;;;;41.58;17.90;;;;;;;;;;5117384;28;20462;-46
2022/03/23 03:28:58;;;;;;;25.92;13.45;;;;;;;;;;5098889;28;20398;-45
2022/03/23 03:31:25;;;;;;;41.03;17.30;;;;;;;;;;5117182;28;20024;-46
2022/03/23 03:33:51;;;;;;;31.52;14.80;;;;;;;;;;5117164;28;20035;-45
2022/03/23 03:36:17;;;;;;;32.45;14.68;;;;;;;;;;5116976;28;20364;-46
2022/03/23 03:38:44;;;;;;;26.73;13.35;;;;;;;;;;5116811;28;20390;-46
2022/03/23 03:41:10;;;;;;;28.33;13.50;;;;;;;;;;5116788;28;20032;-46
2022/03/23 03:43:37;;;;;;;31.40;13.73;;;;;;;;;;5116928;28;20027;-46
2022/03/23 03:46:06;;;;;;;29.70;14.38;;;;;;;;;;5116801;28;20543;-48
2022/03/23 03:48:32;;;;;;;29.88;14.60;;;;;;;;;;5116402;28;20062;-46
2022/03/23 03:51:00;;;;;;;35.55;16.48;;;;;;;;;;5116596;28;20024;-46
2022/03/23 03:53:27;;;;;;;35.08;14.20;;;;;;;;;;5116428;28;20031;-45
2022/03/23 03:55:53;;;;;;;29.85;13.35;;;;;;;;;;5116793;28;20046;-45
2022/03/23 03:58:19;;;;;;;25.08;12.57;;;;;;;;;;5116587;28;20020;-45
2022/03/23 04:00:47;;;;;;;28.70;13.43;;;;;;;;;;5116535;28;20506;-45
2022/03/23 04:03:14;;;;;;;30.02;13.35;;;;;;;;;;5116483;28;20041;-45
2022/03/23 04:05:40;;;;;;;31.63;13.75;;;;;;;;;;5116411;28;20172;-46
2022/03/23 04:08:06;;;;;;;34.25;14.55;;;;;;;;;;5116324;28;20463;-46
2022/03/23 04:10:33;;;;;;;33.53;14.68;;;;;;;;;;5116696;28;20115;-45
2022/03/23 04:12:59;;;;;;;38.45;15.70;;;;;;;;;;5116584;28;20020;-46
2022/03/23 04:15:26;;;;;;;32.78;15.02;;;;;;;;;;5116393;28;20421;-50
2022/03/23 04:17:55;;;;;;;36.30;16.92;;;;;;;;;;5116000;28;20459;-49
2022/03/23 04:20:24;;;;;;;43.63;17.40;;;;;;;;;;5116313;28;20031;-52
2022/03/23 04:22:51;;;;;;;36.00;16.77;;;;;;;;;;5115986;28;20016;-49
2022/03/23 04:25:18;;;;;;;30.20;15.48;;;;;;;;;;5116111;28;20023;-49
2022/03/23 04:27:45;;;;;;;31.77;15.73;;;;;;;;;;5116112;28;20027;-46
2022/03/23 04:30:13;;;;;;;30.35;14.25;;;;;;;;;;5116016;28;20102;-49
2022/03/23 04:32:39;;;;;;;42.20;18.48;;;;;;;;;;5116097;28;20020;-59
2022/03/23 04:35:06;;;;;;;82.15;26.48;;;;;;;;;;5115804;28;20019;-45
2022/03/23 04:37:32;;;;;;;50.97;20.02;;;;;;;;;;5115789;28;20026;-46
2022/03/23 04:39:59;;;;;;;65.32;21.83;;;;;;;;;;5115871;28;20108;-47
2022/03/23 04:42:25;;;;;;;52.08;21.83;;;;;;;;;;5115909;28;20023;-53
2022/03/23 04:44:51;;;;;;;41.22;19.25;;;;;;;;;;5115645;28;20028;-47
2022/03/23 04:47:17;;;;;;;43.38;17.40;;;;;;;;;;5115763;28;20028;-53
2022/03/23 04:49:43;;;;;;;47.47;17.50;;;;;;;;;;5097114;28;20048;-46
2022/03/23 04:52:11;;;;;;;49.97;19.60;;;;;;;;;;5115525;28;20514;-52
2022/03/23 04:54:37;;;;;;;43.97;19.05;;;;;;;;;;5115372;28;20050;-47
2022/03/23 04:57:04;;;;;;;46.00;18.85;;;;;;;;;;5115577;28;20015;-49
2022/03/23 04:59:32;;;;;;;49.30;19.73;;;;;;;;;;5115528;28;20031;-47
2022/03/23 05:01:58;;;;;;;39.17;17.80;;;;;;;;;;5115333;28;20487;-46
2022/03/23 05:04:25;;;;;;;35.78;16.98;;;;;;;;;;5115471;28;20024;-46
2022/03/23 05:06:51;;;;;;;37.83;16.95;;;;;;;;;;5115296;28;20012;-44
2022/03/23 05:09:17;;;;;;;45.03;16.83;;;;;;;;;;5115025;28;20055;-46
2022/03/23 05:11:43;;;;;;;45.05;17.90;;;;;;;;;;5115279;28;20024;-45
2022/03/23 05:14:09;;;;;;;45.00;19.95;;;;;;;;;;5115187;28;20032;-43
2022/03/23 05:16:35;;;;;;;42.70;20.50;;;;;;;;;;5115022;28;20023;-46
2022/03/23 05:19:01;;;;;;;70.15;31.17;;;;;;;;;;5115114;28;20511;-46
2022/03/23 05:21:27;;;;;;;70.97;28.20;;;;;;;;;;5114891;28;20039;-45
2022/03/23 05:23:53;;;;;;;64.68;25.77;;;;;;;;;;5114792;28;20161;-44
2022/03/23 05:26:19;;;;;;;60.80;27.90;;;;;;;;;;5114958;28;20061;-46
2022/03/23 05:28:45;;;;;;;74.22;33.15;;;;;;;;;;5115037;28;20027;-51
2022/03/23 05:31:11;;;;;;;58.58;26.60;;;;;;;;;;5114882;28;20051;-46
2022/03/23 05:33:38;;;;;;;46.15;21.05;;;;;;;;;;5114843;28;20021;-46
2022/03/23 05:36:04;;;;;;;43.35;21.13;;;;;;;;;;5114839;28;20110;-46
2022/03/23 05:38:30;;;;;;;37.90;18.83;;;;;;;;;;5114528;28;20027;-47
2022/03/23 05:40:56;;;;;;;41.28;20.42;;;;;;;;;;5114587;28;20034;-46
2022/03/23 05:43:22;;;;;;;44.00;20.20;;;;;;;;;;5114062;28;20027;-45
2022/03/23 05:45:49;;;;;;;43.05;21.73;;;;;;;;;;5114547;28;20028;-46
2022/03/23 05:48:15;;;;;;;43.15;20.67;;;;;;;;;;5114149;28;20088;-45
2022/03/23 05:50:41;;;;;;;47.63;22.40;;;;;;;;;;5114439;28;20241;-46
2022/03/23 05:53:08;;;;;;;45.08;22.08;;;;;;;;;;5114398;28;20023;-46
2022/03/23 05:55:34;;;;;;;43.75;21.33;;;;;;;;;;5093622;28;20035;-46
2022/03/23 05:58:00;;;;;;;41.22;19.95;;;;;;;;;;5106527;28;20008;-45
2022/03/23 06:00:26;;;;;;;35.78;18.40;;;;;;;;;;5106016;28;20027;-45
2022/03/23 06:02:55;;;;;;;36.80;19.48;;;;;;;;;;5110722;28;20395;-46
2022/03/23 06:05:21;;;;;;;47.35;20.15;;;;;;;;;;5111452;28;20032;-46
2022/03/23 06:07:47;;;;;;;42.40;19.52;;;;;;;;;;5114073;28;20023;-45
2022/03/23 06:10:13;;;;;;;40.97;18.48;;;;;;;;;;5113633;28;20096;-45
2022/03/23 06:12:39;;;;;;;42.78;19.10;;;;;;;;;;5114160;28;20030;-46
2022/03/23 06:15:08;;;;;;;48.25;22.90;;;;;;;;;;5113849;28;20391;-46
2022/03/23 06:17:35;;;;;;;43.60;21.85;;;;;;;;;;5113664;28;20027;-47
2022/03/23 06:20:02;;;;;;;47.70;23.50;;;;;;;;;;5113835;28;20035;-46
2022/03/23 06:22:28;;;;;;;66.97;30.73;;;;;;;;;;5113882;28;20147;-47
2022/03/23 06:24:54;;;;;;;44.65;22.67;;;;;;;;;;5113711;28;20027;-48
2022/03/23 06:27:20;;;;;;;56.78;26.52;;;;;;;;;;5113634;28;20023;-47
2022/03/23 06:29:46;;;;;;;66.43;32.53;;;;;;;;;;5113876;28;20024;-48
2022/03/23 06:32:13;;;;;;;63.75;30.70;;;;;;;;;;5113796;28;20427;-48
2022/03/23 06:34:39;;;;;;;53.42;24.20;;;;;;;;;;5113820;28;20023;-47
2022/03/23 06:37:08;;;;;;;42.10;18.77;;;;;;;;;;5113901;28;20028;-47
2022/03/23 06:39:34;;;;;;;52.28;23.90;;;;;;;;;;5113345;28;20077;-48
2022/03/23 06:42:00;;;;;;;74.90;35.05;;;;;;;;;;5113829;28;20035;-48
2022/03/23 06:44:29;;;;;;;60.38;29.15;;;;;;;;;;5113823;28;20062;-47
2022/03/23 06:46:55;;;;;;;45.50;21.58;;;;;;;;;;5113641;28;20419;-46
2022/03/23 06:49:21;;;;;;;53.03;23.17;;;;;;;;;;5113547;28;20043;-46
2022/03/23 06:51:48;;;;;;;46.78;23.77;;;;;;;;;;5113516;28;20016;-47
2022/03/23 06:54:14;;;;;;;41.78;18.77;;;;;;;;;;5113336;28;20094;-47
2022/03/23 06:56:40;;;;;;;40.33;17.48;;;;;;;;;;5117827;28;20024;-47
2022/03/23 06:59:06;;;;;;;39.42;19.45;;;;;;;;;;5117672;28;20339;-48
2022/03/23 07:01:32;;;;;;;35.60;18.33;;;;;;;;;;5117750;28;20067;-49
2022/03/23 07:03:58;;;;;;;41.50;18.30;;;;;;;;;;5117554;28;20107;-47
2022/03/23 07:06:26;;;;;;;46.22;19.40;;;;;;;;;;5117736;28;20030;-47
2022/03/23 07:11:40;;;;;;;36.67;20.70;;;;;;;;;;5117933;28;20038;-48
2022/03/23 07:14:06;;;;;;;40.53;19.67;;;;;;;;;;5117482;28;20024;-47
2022/03/23 07:16:32;;;;;;;36.22;17.83;;;;;;;;;;5117317;28;20073;-47
2022/03/23 07:18:58;;;;;;;35.05;17.70;;;;;;;;;;5117415;28;20047;-47
2022/03/23 07:21:24;;;;;;;38.20;16.83;;;;;;;;;;5117243;28;20028;-47
2022/03/23 07:23:50;;;;;;;36.92;17.45;;;;;;;;;;5117223;28;20023;-47
2022/03/23 07:26:16;;;;;;;33.22;18.02;;;;;;;;;;5117082;28;20077;-47
2022/03/23 07:28:42;;;;;;;27.67;15.27;;;;;;;;;;5117339;28;20031;-47
2022/03/23 07:31:08;;;;;;;29.90;15.32;;;;;;;;;;5117147;28;20468;-47
2022/03/23 07:33:35;;;;;;;28.52;14.95;;;;;;;;;;5117166;28;20024;-47
2022/03/23 07:36:02;;;;;;;29.08;14.38;;;;;;;;;;5117058;28;20098;-47
2022/03/23 07:38:28;;;;;;;32.78;15.13;;;;;;;;;;5117103;28;20104;-47
2022/03/23 07:40:54;;;;;;;30.73;14.73;;;;;;;;;;5116750;28;20032;-48
2022/03/23 07:43:20;;;;;;;28.65;14.77;;;;;;;;;;5116750;28;20467;-46
2022/03/23 07:45:49;;;;;;;29.33;16.15;;;;;;;;;;5116743;28;20111;-47
2022/03/23 07:48:16;;;;;;;31.40;14.98;;;;;;;;;;5116195;28;20483;-46
2022/03/23 07:50:42;;;;;;;37.28;16.73;;;;;;;;;;5115468;28;20042;-46
2022/03/23 07:53:08;;;;;;;32.42;16.80;;;;;;;;;;5115423;28;20027;-47
2022/03/23 07:55:34;;;;;;;36.10;16.15;;;;;;;;;;5115369;28;20027;-46
2022/03/23 07:58:00;;;;;;;36.05;18.20;;;;;;;;;;5115335;28;20028;-47
2022/03/23 08:00:26;;;;;;;35.08;16.75;;;;;;;;;;5115354;28;20092;-46
2022/03/23 08:02:55;;;;;;;31.20;15.98;;;;;;;;;;5115340;28;20027;-45
2022/03/23 08:05:21;;;;;;;27.85;16.10;;;;;;;;;;5115098;28;20035;-47
2022/03/23 08:07:47;;;;;;;31.98;16.05;;;;;;;;;;5096769;28;20544;-48
2022/03/23 08:10:13;;;;;;;29.23;16.23;;;;;;;;;;5115240;28;20386;-48
2022/03/23 08:12:39;;;;;;;38.58;17.02;;;;;;;;;;5115214;28;20024;-48
2022/03/23 08:15:07;;;;;;;30.45;14.93;;;;;;;;;;5115317;28;20054;-47
2022/03/23 08:17:33;;;;;;;25.45;15.55;;;;;;;;;;5114852;28;20032;-46
2022/03/23 08:22:44;;;;;;;30.48;15.55;;;;;;;;;;5114984;28;20034;-48
2022/03/23 08:25:10;;;;;;;31.67;15.45;;;;;;;;;;5115095;28;20020;-48
2022/03/23 08:27:36;;;;;;;31.60;16.33;;;;;;;;;;5115206;28;20364;-48
2022/03/23 08:30:04;;;;;;;32.80;16.27;;;;;;;;;;5114945;28;20035;-49
2022/03/23 08:32:31;;;;;;;30.77;14.25;;;;;;;;;;5114914;28;20023;-46
2022/03/23 08:34:57;;;;;;;28.73;15.35;;;;;;;;;;5115009;28;20026;-48
2022/03/23 08:37:23;;;;;;;31.13;15.25;;;;;;;;;;5115076;28;20095;-48
2022/03/23 08:39:49;;;;;;;28.73;13.93;;;;;;;;;;5114802;28;20029;-48
2022/03/23 08:42:15;;;;;;;30.85;16.65;;;;;;;;;;5114624;28;20091;-47
2022/03/23 08:44:41;;;;;;;26.38;14.48;;;;;;;;;;5114738;28;20471;-48
2022/03/23 08:47:10;;;;;;;28.25;13.20;;;;;;;;;;5096301;28;20035;-48
2022/03/23 08:49:37;;;;;;;34.22;15.68;;;;;;;;;;5072366;28;1218088;-50
2022/03/23 08:52:03;;;;;;;28.05;12.90;;;;;;;;;;5115386;28;20440;-49
2022/03/23 08:54:29;;;;;;;25.88;13.20;;;;;;;;;;5115666;28;20034;-47
2022/03/23 08:56:55;;;;;;;35.38;16.60;;;;;;;;;;5115438;28;20081;-49
2022/03/23 08:59:21;;;;;;;36.50;17.90;;;;;;;;;;5115411;28;20031;-49
2022/03/23 09:01:48;;;;;;;25.02;13.68;;;;;;;;;;5096916;28;20385;-48
2022/03/23 09:04:14;;;;;;;26.77;12.63;;;;;;;;;;5115445;28;20046;-49
2022/03/23 09:06:41;;;;;;;24.33;11.57;;;;;;;;;;5115265;28;20424;-47
2022/03/23 09:09:07;;;;;;;25.35;14.13;;;;;;;;;;5115005;28;20015;-48
2022/03/23 09:11:35;;;;;;;35.22;13.52;;;;;;;;;;5115180;28;20034;-49
2022/03/23 09:14:01;;;;;;;21.77;12.05;;;;;;;;;;5115294;28;20020;-49
2022/03/23 09:16:27;;;;;;;22.67;12.00;;;;;;;;;;5114979;28;20320;-49
2022/03/23 09:18:56;;;;;;;27.80;14.95;;;;;;;;;;5114269;28;20173;-49
2022/03/23 09:21:24;;;;;;;28.52;13.70;;;;;;;;;;5114811;28;20481;-47
2022/03/23 09:23:50;;;;;;;18.58;11.00;;;;;;;;;;5114970;28;20030;-49
2022/03/23 09:26:17;;;;;;;22.50;9.75;;;;;;;;;;5114853;28;20479;-49
2022/03/23 09:28:46;;;;;;;23.80;12.13;;;;;;;;;;5114894;28;20113;-50
2022/03/23 09:31:12;;;;;;;20.20;9.52;;;;;;;;;;5114847;28;20028;-48
2022/03/23 09:33:38;;;;;;;22.15;10.75;;;;;;;;;;5114809;28;20022;-46
2022/03/23 09:36:05;;;;;;;20.42;10.25;;;;;;;;;;5114524;28;20038;-47
2022/03/23 09:38:31;;;;;;;17.35;9.23;;;;;;;;;;5114912;28;20031;-47
2022/03/23 09:40:57;;;;;;;22.42;12.70;;;;;;;;;;5114503;28;20385;-48
2022/03/23 09:43:26;;;;;;;29.55;13.93;;;;;;;;;;5114664;28;20016;-49
2022/03/23 09:45:53;;;;;;;24.67;13.10;;;;;;;;;;5114823;28;20064;-50
2022/03/23 09:48:24;;;;;;;18.90;11.05;;;;;;;;;;5114279;28;20101;-47
2022/03/23 09:50:52;;;;;;;24.45;13.45;;;;;;;;;;5114524;28;20437;-48
2022/03/23 09:53:21;;;;;;;21.35;10.60;;;;;;;;;;5114338;28;20081;-48
2022/03/23 09:55:48;;;;;;;34.70;16.38;;;;;;;;;;5114367;28;20038;-46
2022/03/23 09:58:14;;;;;;;18.95;9.57;;;;;;;;;;5114405;28;20047;-49
2022/03/23 10:00:44;;;;;;;22.65;10.25;;;;;;;;;;5114229;28;20085;-46
2022/03/23 10:03:10;;;;;;;23.25;12.07;;;;;;;;;;5114406;28;20069;-46
2022/03/23 10:05:54;;;;;;;37.72;20.63;;;;;;;;;;5114274;28;20072;-48
2022/03/23 10:08:20;;;;;;;36.38;18.77;;;;;;;;;;5114203;28;20023;-48
2022/03/23 10:10:58;;;;;;;25.45;14.45;;;;;;;;;;5114269;28;20027;-48
2022/03/23 10:13:43;;;;;;;23.73;9.82;;;;;;;;;;5114082;28;20028;-48
2022/03/23 10:16:18;;;;;;;26.13;12.80;;;;;;;;;;5114198;28;20027;-45
2022/03/23 10:18:57;;;;;;;24.45;14.52;;;;;;;;;;5113867;28;20032;-46
2022/03/23 10:21:27;;;;;;;27.48;13.90;;;;;;;;;;5114026;28;20047;-44
2022/03/23 10:24:00;;;;;;;13.15;7.68;;;;;;;;;;5113964;28;20024;-44
2022/03/23 10:26:27;;;;;;;33.15;13.55;;;;;;;;;;5113680;28;20088;-45
2022/03/23 10:28:53;;;;;;;37.20;21.60;;;;;;;;;;5113700;28;20532;-44
2022/03/23 10:31:20;;;;;;;38.38;21.35;;;;;;;;;;5113851;28;20040;-47
2022/03/23 10:34:10;;;;;;;36.00;17.20;;;;;;;;;;5114184;28;20023;-46
2022/03/23 10:36:39;;;;;;;12.95;6.95;;;;;;;;;;5113692;28;20019;-46
2022/03/23 10:39:06;;;;;;;18.38;6.88;;;;;;;;;;5113686;28;20023;-45
2022/03/23 10:41:32;;;;;;;21.60;10.95;;;;;;;;;;5113594;28;20036;-46
2022/03/23 10:43:59;;;;;;;30.58;17.20;;;;;;;;;;5113695;28;20468;-45
2022/03/23 10:46:25;;;;;;;26.10;13.90;;;;;;;;;;5113331;28;20494;-44
2022/03/23 10:48:58;;;;;;;36.58;20.17;;;;;;;;;;5105614;28;20044;-47
2022/03/23 10:51:28;;;;;;;26.92;13.93;;;;;;;;;;5113645;28;20026;-48
2022/03/23 10:53:55;;;;;;;44.20;22.75;;;;;;;;;;5113500;28;20519;-47
2022/03/23 10:56:35;;;;;;;21.85;10.20;;;;;;;;;;5113671;28;20474;-47
2022/03/23 10:59:17;;;;;;;11.13;6.32;;;;;;;;;;5113563;28;20024;-45
2022/03/23 11:01:55;;;;;;;30.98;13.43;;;;;;;;;;5113445;28;20335;-47
2022/03/23 11:04:21;;;;;;;31.17;14.60;;;;;;;;;;5113622;28;20170;-47
2022/03/23 11:06:48;;;;;;;42.55;23.13;;;;;;;;;;5113749;28;20030;-45
2022/03/23 11:17:49;;;;;;;14.20;7.35;;;;;;;;;;5031005;28;20473;-45
2022/03/23 11:20:18;;;;;;;27.25;14.43;;;;;;;;;;5030748;28;20056;-46
2022/03/23 11:22:45;;;;;;;29.40;13.55;;;;;;;;;;5030843;28;20398;-44
2022/03/23 11:25:11;;;;;;;9.70;4.53;;;;;;;;;;5030651;28;20116;-44
2022/03/23 11:27:37;;;;;;;11.30;5.00;;;;;;;;;;5030723;28;20087;-45
2022/03/23 11:30:06;;;;;;;14.73;4.20;;;;;;;;;;5030836;28;20164;-45
2022/03/23 11:32:37;;;;;;;13.60;5.15;;;;;;;;;;5030625;28;20030;-46
2022/03/23 11:35:04;;;;;;;10.93;5.25;;;;;;;;;;5030694;28;20041;-45
2022/03/23 11:37:31;;;;;;;8.32;4.13;;;;;;;;;;5030705;28;20018;-45
2022/03/23 11:39:57;;;;;;;18.67;8.90;;;;;;;;;;5030564;28;20036;-45
2022/03/23 11:42:24;;;;;;;13.35;5.68;;;;;;;;;;5033904;28;20056;-45
2022/03/23 11:44:51;;;;;;;18.13;9.20;;;;;;;;;;5034282;28;20028;-46
2022/03/23 11:47:25;;;;;;;30.00;13.70;;;;;;;;;;5058628;28;20040;-46
2022/03/23 11:50:17;;;;;;;15.07;6.82;;;;;;;;;;5116482;28;20234;-45
2022/03/23 11:53:07;;;;;;;12.05;6.10;;;;;;;;;;5085789;28;20483;-45
2022/03/23 11:55:40;;;;;;;14.73;7.18;;;;;;;;;;5034059;28;20513;-44
2022/03/23 11:58:17;;;;;;;12.45;5.50;;;;;;;;;;5034063;28;20069;-44
2022/03/23 12:00:46;;;;;;;6.93;3.75;;;;;;;;;;5034031;28;20052;-45
2022/03/23 12:03:12;;;;;;;14.95;5.60;;;;;;;;;;5034095;28;20443;-45
2022/03/23 12:05:49;;;;;;;16.02;8.68;;;;;;;;;;5033802;28;20029;-45
2022/03/23 12:08:39;;;;;;;8.52;3.85;;;;;;;;;;5029185;28;20030;-45
2022/03/23 12:11:25;;;;;;;6.63;3.53;;;;;;;;;;5001107;28;20129;-44
2022/03/23 12:14:02;;;;;;;11.18;4.35;;;;;;;;;;5005003;28;20214;-46
2022/03/23 12:16:46;;;;;;;12.30;4.03;;;;;;;;;;5010683;28;20033;-45
2022/03/23 12:19:17;;;;;;;5.15;2.63;;;;;;;;;;5013948;28;20517;-44
2022/03/23 12:22:01;;;;;;;5.82;3.15;;;;;;;;;;5013443;28;20438;-44
2022/03/23 12:24:42;;;;;;;9.50;3.67;;;;;;;;;;5012557;28;20036;-45
2022/03/23 12:27:14;;;;;;;10.27;3.78;;;;;;;;;;5012510;28;20033;-45
2022/03/23 12:29:40;;;;;;;6.82;3.83;;;;;;;;;;5012761;28;20030;-44
2022/03/23 12:32:10;;;;;;;10.73;4.00;;;;;;;;;;5037303;28;20143;-45
2022/03/23 12:34:38;;;;;;;16.25;6.55;;;;;;;;;;5094824;28;20028;-45
2022/03/23 12:37:16;;;;;;;27.52;13.82;;;;;;;;;;5094146;28;20020;-45
2022/03/23 12:39:45;;;;;;;17.15;8.85;;;;;;;;;;5092963;28;20073;-45
2022/03/23 12:42:17;;;;;;;8.68;4.50;;;;;;;;;;5091272;28;20056;-45
2022/03/23 12:44:46;;;;;;;6.03;2.28;;;;;;;;;;5094028;28;20012;-45
2022/03/23 12:47:15;;;;;;;12.73;5.85;;;;;;;;;;5091565;28;20026;-45
2022/03/23 12:58:12;;;;;;;5.70;2.35;;;;;;;;;;5092016;28;20031;-45
2022/03/23 13:00:40;;;;;;;6.68;3.13;;;;;;;;;;5094578;28;20027;-48
2022/03/23 13:03:06;;;;;;;5.95;2.72;;;;;;;;;;5094420;28;20035;-47
2022/03/23 13:05:33;;;;;;;7.28;2.60;;;;;;;;;;5094628;28;20024;-46
2022/03/23 13:07:59;;;;;;;5.25;2.38;;;;;;;;;;5094434;28;20016;-45
2022/03/23 13:10:25;;;;;;;6.05;2.22;;;;;;;;;;5094258;28;20009;-44
2022/03/23 13:13:04;;;;;;;7.25;2.95;;;;;;;;;;5091780;28;20023;-46
2022/03/23 13:15:31;;;;;;;8.15;2.75;;;;;;;;;;5091597;28;20020;-44
2022/03/23 13:17:57;;;;;;;8.55;2.88;;;;;;;;;;5094148;28;20031;-45
2022/03/23 13:20:27;;;;;;;6.18;2.70;;;;;;;;;;5069368;28;20047;-44
2022/03/23 13:22:53;;;;;;;6.32;2.50;;;;;;;;;;5063419;28;20127;-44
2022/03/23 13:25:20;;;;;;;8.10;2.75;;;;;;;;;;5064478;28;20032;-44
2022/03/23 13:27:47;;;;;;;6.78;2.97;;;;;;;;;;5063369;28;20035;-44
2022/03/23 13:30:15;;;;;;;8.77;3.40;;;;;;;;;;5064624;28;20091;-45
2022/03/23 13:32:45;;;;;;;10.35;4.35;;;;;;;;;;5063487;28;20025;-44
2022/03/23 13:35:19;;;;;;;8.30;2.80;;;;;;;;;;5063078;28;20508;-44
2022/03/23 13:38:00;;;;;;;7.88;3.30;;;;;;;;;;5064381;28;20032;-44
2022/03/23 13:43:19;;;;;;;4.65;2.50;;;;;;;;;;5064281;28;20099;-45
2022/03/23 13:43:21;;;;;;;9.85;3.78;;;;;;;;;;5063373;28;20032;-45
2022/03/23 13:45:57;;;;;;;7.05;2.75;;;;;;;;;;5063292;28;20031;-44
2022/03/23 13:48:26;;;;;;;5.80;2.65;;;;;;;;;;5062519;28;20044;-45
2022/03/23 13:50:53;;;;;;;9.20;3.40;;;;;;;;;;5062887;28;20732;-44
2022/03/23 13:53:20;;;;;;;7.03;2.70;;;;;;;;;;5062874;28;20039;-45
2022/03/23 13:55:48;;;;;;;9.18;2.60;;;;;;;;;;5062633;28;20028;-45
2022/03/23 13:58:18;;;;;;;10.48;4.45;;;;;;;;;;5062958;28;20024;-44
2022/03/23 14:00:48;;;;;;;8.17;3.43;;;;;;;;;;5062659;28;20044;-44
2022/03/23 14:03:18;;;;;;;12.38;4.25;;;;;;;;;;5063457;28;20032;-44
2022/03/23 14:06:15;;;;;;;9.57;3.90;;;;;;;;;;5062601;28;20489;-45
2022/03/23 14:08:54;;;;;;;4.25;2.65;;;;;;;;;;5019446;28;20088;-43
2022/03/23 14:11:47;;;;;;;5.93;2.92;;;;;;;;;;5019929;28;20075;-42
2022/03/23 14:14:08;;;;;;;9.00;3.25;;;;;;;;;;5019369;28;20048;-42
2022/03/23 14:16:34;;;;;;;4.93;2.30;;;;;;;;;;5018864;28;20087;-43
2022/03/23 14:19:03;;;;;;;6.35;2.70;;;;;;;;;;5019162;28;20470;-42
2022/03/23 14:21:32;;;;;;;5.75;2.80;;;;;;;;;;5018973;28;20445;-43
2022/03/23 14:23:58;;;;;;;6.03;2.85;;;;;;;;;;5020770;28;20111;-45
2022/03/23 14:26:31;;;;;;;4.25;2.50;;;;;;;;;;5025716;28;20385;-44
2022/03/23 14:28:57;;;;;;;4.15;2.58;;;;;;;;;;5051345;28;20389;-46
2022/03/23 14:31:24;;;;;;;4.53;2.60;;;;;;;;;;5053451;28;20107;-44
2022/03/23 14:33:54;;;;;;;7.55;2.90;;;;;;;;;;5053030;28;20047;-46
2022/03/23 14:36:25;;;;;;;9.93;3.50;;;;;;;;;;5070995;28;20033;-44
2022/03/23 14:38:51;;;;;;;4.22;2.47;;;;;;;;;;5053813;28;20167;-45
2022/03/23 14:41:20;;;;;;;10.55;2.80;;;;;;;;;;5070594;28;20036;-43
2022/03/23 14:43:48;;;;;;;8.25;2.35;;;;;;;;;;5070605;28;20036;-43
2022/03/23 14:46:20;;;;;;;6.45;2.97;;;;;;;;;;5107555;28;20035;-43
2022/03/23 14:48:47;;;;;;;8.05;2.35;;;;;;;;;;5098415;28;20422;-44
2022/03/23 14:51:13;;;;;;;9.20;3.00;;;;;;;;;;5102524;28;20063;-44
2022/03/23 14:53:39;;;;;;;6.55;2.85;;;;;;;;;;5099197;28;20020;-45
2022/03/23 14:56:05;;;;;;;6.45;2.78;;;;;;;;;;5110413;28;20471;-44
2022/03/23 14:58:35;;;;;;;6.25;3.20;;;;;;;;;;5113645;28;20051;-44
2022/03/23 15:01:02;;;;;;;4.10;2.47;;;;;;;;;;5113173;28;20024;-44